Time;durP1;ratioP1;P1;durP2;ratioP2;P2;SDS_P1;SDS_P2;PMS_P1;PMS_P2;Temp;Humidity;BMP_temperature;BMP_pressure;BME280_temperature;BME280_humidity;BME280_pressure;Samples;Min_cycle;Max_cycle;Signal;HPM_P1;HPM_P2
2021/12/07 00:02:01;;;;;;;104.25;46.13;;;;;;;;;;5076016;28;20498;-81
2021/12/07 00:04:28;;;;;;;108.75;47.55;;;;;;;;;;5075118;28;20021;-82
2021/12/07 00:06:54;;;;;;;118.30;50.63;;;;;;;;;;5056513;28;20487;-84
2021/12/07 00:09:22;;;;;;;103.40;49.10;;;;;;;;;;5054801;28;20422;-84
2021/12/07 00:11:50;;;;;;;99.30;48.65;;;;;;;;;;5074163;28;20031;-82
2021/12/07 00:14:23;;;;;;;118.60;50.63;;;;;;;;;;5056637;28;20028;-83
2021/12/07 00:16:50;;;;;;;112.32;50.85;;;;;;;;;;5074398;28;20070;-84
2021/12/07 00:19:16;;;;;;;106.97;51.28;;;;;;;;;;5068813;28;20025;-84
2021/12/07 00:21:44;;;;;;;109.50;53.42;;;;;;;;;;5048032;28;20419;-83
2021/12/07 00:24:11;;;;;;;105.40;50.42;;;;;;;;;;5071107;28;20064;-84
2021/12/07 00:26:39;;;;;;;106.53;51.47;;;;;;;;;;5074120;28;20094;-84
2021/12/07 00:29:06;;;;;;;105.50;48.63;;;;;;;;;;5073574;28;20025;-83
2021/12/07 00:31:48;;;;;;;108.68;51.97;;;;;;;;;;5056012;28;20028;-84
2021/12/07 00:34:37;;;;;;;115.07;50.28;;;;;;;;;;5073636;28;20033;-83
2021/12/07 00:37:02;;;;;;;116.15;51.83;;;;;;;;;;5049429;28;20516;-82
2021/12/07 00:39:28;;;;;;;119.93;51.60;;;;;;;;;;5035140;28;20037;-84
2021/12/07 00:41:56;;;;;;;125.35;55.72;;;;;;;;;;5051885;28;20097;-85
2021/12/07 00:44:24;;;;;;;116.15;53.50;;;;;;;;;;5043143;28;20074;-84
2021/12/07 00:46:50;;;;;;;124.57;51.17;;;;;;;;;;5054852;28;20100;-84
2021/12/07 00:49:17;;;;;;;120.18;50.35;;;;;;;;;;5045244;28;20025;-85
2021/12/07 00:51:43;;;;;;;123.07;53.75;;;;;;;;;;5047549;28;20025;-85
2021/12/07 00:54:10;;;;;;;122.97;54.85;;;;;;;;;;5053753;28;20019;-83
2021/12/07 00:56:38;;;;;;;100.15;50.70;;;;;;;;;;5048402;28;20468;-84
2021/12/07 00:59:04;;;;;;;113.95;53.88;;;;;;;;;;5033670;28;20105;-85
2021/12/07 01:01:31;;;;;;;119.40;53.38;;;;;;;;;;5041569;28;20053;-84
2021/12/07 01:03:57;;;;;;;125.93;54.33;;;;;;;;;;5041624;28;20025;-84
2021/12/07 01:09:01;;;;;;;120.53;56.55;;;;;;;;;;5057059;28;20123;-82
2021/12/07 01:25:16;;;;;;;140.27;64.07;;;;;;;;;;5043624;28;20043;-84
2021/12/07 01:27:45;;;;;;;154.45;71.55;;;;;;;;;;5043978;28;20387;-83
2021/12/07 01:30:30;;;;;;;162.02;74.63;;;;;;;;;;5042716;28;20025;-84
2021/12/07 01:36:04;;;;;;;158.85;71.40;;;;;;;;;;5045157;28;20427;-81
2021/12/07 01:39:29;;;;;;;157.73;76.72;;;;;;;;;;5050969;28;20033;-83
2021/12/07 01:59:47;;;;;;;161.75;79.13;;;;;;;;;;5067524;28;20035;-85
2021/12/07 02:02:16;;;;;;;148.18;79.32;;;;;;;;;;5068338;28;20031;-85
2021/12/07 02:04:42;;;;;;;158.50;79.82;;;;;;;;;;5072284;28;20455;-82
2021/12/07 02:07:11;;;;;;;155.30;79.03;;;;;;;;;;5071913;28;20095;-83
2021/12/07 02:09:40;;;;;;;166.48;81.78;;;;;;;;;;5047643;28;20111;-84
2021/12/07 02:12:07;;;;;;;166.18;80.82;;;;;;;;;;5070637;28;20029;-81
2021/12/07 02:14:34;;;;;;;162.77;82.72;;;;;;;;;;5071712;28;20177;-83
2021/12/07 02:17:03;;;;;;;155.05;78.28;;;;;;;;;;5064417;28;20508;-81
2021/12/07 02:19:30;;;;;;;153.70;77.78;;;;;;;;;;5059061;28;20441;-80
2021/12/07 02:21:58;;;;;;;150.02;77.75;;;;;;;;;;5066026;28;20095;-82
2021/12/07 02:27:20;;;;;;;155.38;79.20;;;;;;;;;;5063164;28;20029;-81
2021/12/07 02:29:48;;;;;;;178.82;85.65;;;;;;;;;;5062542;28;20031;-81
2021/12/07 02:32:15;;;;;;;170.85;84.55;;;;;;;;;;5062602;28;20023;-81
2021/12/07 02:34:53;;;;;;;170.32;83.32;;;;;;;;;;5040608;28;20035;-81
2021/12/07 02:37:33;;;;;;;168.40;88.00;;;;;;;;;;5041683;28;20025;-81
2021/12/07 02:40:00;;;;;;;188.00;92.95;;;;;;;;;;5044864;28;20016;-80
2021/12/07 02:42:27;;;;;;;178.38;87.18;;;;;;;;;;5042652;28;20107;-81
2021/12/07 02:44:53;;;;;;;202.38;99.97;;;;;;;;;;5055945;28;20020;-82
2021/12/07 02:47:20;;;;;;;200.80;96.03;;;;;;;;;;5064347;28;20020;-79
2021/12/07 02:49:47;;;;;;;184.88;93.82;;;;;;;;;;5047748;28;20029;-81
2021/12/07 02:52:14;;;;;;;175.27;91.95;;;;;;;;;;5064424;28;20043;-80
2021/12/07 02:54:44;;;;;;;207.15;99.93;;;;;;;;;;5065391;28;20075;-80
2021/12/07 02:57:49;;;;;;;238.32;127.72;;;;;;;;;;5061338;28;20020;-81
2021/12/07 03:00:20;;;;;;;244.85;137.30;;;;;;;;;;4956058;28;20063;-81
2021/12/07 03:02:55;;;;;;;273.75;149.93;;;;;;;;;;4957780;28;20038;-81
2021/12/07 03:05:40;;;;;;;278.80;156.23;;;;;;;;;;5059382;28;20034;-81
2021/12/07 03:27:31;;;;;;;268.38;152.52;;;;;;;;;;5055306;28;20048;-82
2021/12/07 03:29:58;;;;;;;270.75;151.73;;;;;;;;;;5036616;28;20033;-81
2021/12/07 03:32:24;;;;;;;253.48;146.80;;;;;;;;;;5058786;28;20013;-81
2021/12/07 03:34:51;;;;;;;263.38;150.80;;;;;;;;;;5037891;28;20036;-81
2021/12/07 03:37:17;;;;;;;280.70;157.48;;;;;;;;;;5066355;28;20072;-81
2021/12/07 03:39:44;;;;;;;275.17;153.07;;;;;;;;;;5042851;28;20363;-81
2021/12/07 03:42:13;;;;;;;265.63;153.00;;;;;;;;;;5043518;28;20029;-84
2021/12/07 03:44:40;;;;;;;281.23;159.07;;;;;;;;;;5046694;28;20484;-81
2021/12/07 03:47:06;;;;;;;283.73;158.48;;;;;;;;;;5043164;28;20029;-82
2021/12/07 03:49:32;;;;;;;278.83;157.30;;;;;;;;;;5046458;28;20031;-81
2021/12/07 03:51:59;;;;;;;286.90;160.13;;;;;;;;;;5045717;28;20029;-81
2021/12/07 03:54:25;;;;;;;289.73;158.40;;;;;;;;;;5039121;28;20021;-81
2021/12/07 03:56:52;;;;;;;285.85;149.52;;;;;;;;;;5034997;28;20153;-80
2021/12/07 03:59:18;;;;;;;277.73;148.60;;;;;;;;;;5043270;28;20013;-80
2021/12/07 04:01:44;;;;;;;266.83;146.90;;;;;;;;;;5035723;28;20086;-81
2021/12/07 04:04:11;;;;;;;267.83;144.50;;;;;;;;;;5038399;28;20025;-81
2021/12/07 04:06:38;;;;;;;292.98;151.82;;;;;;;;;;5040002;28;20037;-79
2021/12/07 04:09:05;;;;;;;301.27;152.60;;;;;;;;;;5045715;28;20079;-81
2021/12/07 04:11:31;;;;;;;318.50;157.98;;;;;;;;;;5042921;28;20109;-80
2021/12/07 04:13:57;;;;;;;323.75;165.45;;;;;;;;;;5040436;28;20037;-81
2021/12/07 04:16:24;;;;;;;321.83;166.38;;;;;;;;;;5039885;28;20033;-81
2021/12/07 04:18:50;;;;;;;308.15;161.88;;;;;;;;;;5042524;28;20155;-80
2021/12/07 04:21:17;;;;;;;329.65;166.75;;;;;;;;;;5041207;28;20040;-82
2021/12/07 04:23:43;;;;;;;322.92;165.40;;;;;;;;;;5044551;28;20029;-81
2021/12/07 04:26:12;;;;;;;320.73;161.40;;;;;;;;;;5041645;28;20412;-83
2021/12/07 04:28:38;;;;;;;312.55;161.30;;;;;;;;;;5036207;28;20029;-79
2021/12/07 04:31:06;;;;;;;325.77;161.55;;;;;;;;;;5038492;28;20021;-82
2021/12/07 04:33:32;;;;;;;314.15;155.00;;;;;;;;;;5040737;28;20048;-81
2021/12/07 04:35:59;;;;;;;288.63;152.45;;;;;;;;;;5056663;28;20089;-82
2021/12/07 04:38:25;;;;;;;299.38;156.52;;;;;;;;;;5062333;28;20032;-81
2021/12/07 04:40:54;;;;;;;312.92;154.13;;;;;;;;;;5057613;28;20025;-80
2021/12/07 04:43:21;;;;;;;316.27;150.57;;;;;;;;;;5036739;28;20064;-82
2021/12/07 04:59:22;;;;;;;202.70;98.43;;;;;;;;;;5057525;28;20521;-81
2021/12/07 05:01:49;;;;;;;206.00;95.95;;;;;;;;;;5060561;28;20021;-80
2021/12/07 05:04:21;;;;;;;194.80;94.25;;;;;;;;;;5057785;28;20035;-81
2021/12/07 05:06:51;;;;;;;189.48;91.22;;;;;;;;;;5039238;28;20384;-80
2021/12/07 05:14:30;;;;;;;178.35;88.05;;;;;;;;;;5059815;28;20036;-81
2021/12/07 05:38:20;;;;;;;193.57;95.80;;;;;;;;;;5043027;28;20037;-82
2021/12/07 05:40:46;;;;;;;186.13;89.65;;;;;;;;;;5041867;28;20029;-81
2021/12/07 05:43:13;;;;;;;175.45;87.82;;;;;;;;;;5041479;28;20039;-82
2021/12/07 05:45:40;;;;;;;176.15;90.93;;;;;;;;;;5043087;28;20095;-80
2021/12/07 05:48:06;;;;;;;182.57;91.93;;;;;;;;;;5042750;28;20025;-82
2021/12/07 05:50:34;;;;;;;201.88;100.65;;;;;;;;;;5041357;28;20059;-81
2021/12/07 05:53:01;;;;;;;201.50;99.03;;;;;;;;;;5018779;28;20051;-82
2021/12/07 05:55:27;;;;;;;203.90;102.72;;;;;;;;;;5023638;28;20025;-81
2021/12/07 05:57:55;;;;;;;231.13;114.95;;;;;;;;;;5023163;28;20157;-81
2021/12/07 06:00:27;;;;;;;237.73;119.97;;;;;;;;;;5044931;28;20076;-80
2021/12/07 06:02:57;;;;;;;244.40;125.25;;;;;;;;;;5043322;28;20044;-81
2021/12/07 06:05:27;;;;;;;236.02;117.28;;;;;;;;;;5041991;28;20392;-81
2021/12/07 06:07:54;;;;;;;233.98;115.03;;;;;;;;;;5025505;28;20021;-81
2021/12/07 06:10:24;;;;;;;235.55;116.55;;;;;;;;;;5040370;28;20025;-80
2021/12/07 06:12:50;;;;;;;235.50;116.75;;;;;;;;;;5040738;28;20025;-83
2021/12/07 06:15:20;;;;;;;233.68;118.85;;;;;;;;;;5044358;28;20028;-81
2021/12/07 06:17:46;;;;;;;223.38;109.53;;;;;;;;;;5042656;28;20043;-81
2021/12/07 06:20:13;;;;;;;221.77;108.18;;;;;;;;;;5023504;28;20035;-81
2021/12/07 06:22:39;;;;;;;208.85;104.30;;;;;;;;;;5022154;28;21173;-80
2021/12/07 06:25:07;;;;;;;212.50;105.88;;;;;;;;;;5042234;28;20029;-82
2021/12/07 06:27:33;;;;;;;214.18;105.95;;;;;;;;;;5045428;28;20028;-83
2021/12/07 06:30:00;;;;;;;203.13;102.07;;;;;;;;;;5025013;28;21329;-83
2021/12/07 06:32:26;;;;;;;201.43;98.40;;;;;;;;;;5024478;28;20051;-82
2021/12/07 06:34:53;;;;;;;194.80;100.53;;;;;;;;;;5041623;28;20075;-81
2021/12/07 06:37:19;;;;;;;207.00;99.32;;;;;;;;;;5060075;28;20031;-81
2021/12/07 06:39:45;;;;;;;205.18;100.65;;;;;;;;;;5064623;28;20031;-82
2021/12/07 06:42:12;;;;;;;197.82;97.50;;;;;;;;;;5058002;28;20487;-83
2021/12/07 06:44:39;;;;;;;199.32;99.28;;;;;;;;;;5063299;28;20013;-80
2021/12/07 06:47:05;;;;;;;201.80;101.13;;;;;;;;;;5048795;28;20032;-82
2021/12/07 06:49:32;;;;;;;202.60;98.03;;;;;;;;;;5042822;28;20103;-82
2021/12/07 06:51:58;;;;;;;195.50;97.55;;;;;;;;;;5062768;28;20031;-83
2021/12/07 06:54:25;;;;;;;196.40;98.85;;;;;;;;;;5041575;28;20482;-81
2021/12/07 06:56:55;;;;;;;206.45;101.95;;;;;;;;;;5039661;28;20028;-83
2021/12/07 06:59:21;;;;;;;213.05;110.90;;;;;;;;;;5061019;28;20089;-80
2021/12/07 07:01:48;;;;;;;190.02;99.15;;;;;;;;;;5058409;28;20027;-81
2021/12/07 07:04:14;;;;;;;199.30;99.10;;;;;;;;;;5060730;28;20020;-80
2021/12/07 07:06:42;;;;;;;197.05;102.25;;;;;;;;;;5061864;28;20035;-81
2021/12/07 07:09:08;;;;;;;209.80;107.32;;;;;;;;;;5059398;28;20653;-86
2021/12/07 07:11:35;;;;;;;214.15;107.25;;;;;;;;;;5054036;28;20024;-80
2021/12/07 07:14:01;;;;;;;218.27;107.30;;;;;;;;;;5068763;28;20086;-81
2021/12/07 07:16:28;;;;;;;209.15;107.93;;;;;;;;;;5068939;28;20021;-81
2021/12/07 07:18:55;;;;;;;197.15;100.53;;;;;;;;;;5063848;28;20025;-81
2021/12/07 07:21:22;;;;;;;186.43;102.18;;;;;;;;;;5059248;28;20107;-83
2021/12/07 07:23:49;;;;;;;196.07;99.93;;;;;;;;;;5057213;28;20025;-83
2021/12/07 07:26:15;;;;;;;187.27;100.63;;;;;;;;;;5061675;28;20460;-82
2021/12/07 07:28:42;;;;;;;197.32;101.43;;;;;;;;;;5044158;28;20059;-82
2021/12/07 07:31:10;;;;;;;196.30;102.95;;;;;;;;;;5062961;28;20131;-80
2021/12/07 07:33:37;;;;;;;195.05;98.90;;;;;;;;;;5059893;28;20505;-83
2021/12/07 07:36:04;;;;;;;193.85;103.95;;;;;;;;;;5067935;28;20380;-83
2021/12/07 07:38:33;;;;;;;203.00;102.88;;;;;;;;;;5060167;28;20068;-82
2021/12/07 07:40:59;;;;;;;217.65;106.47;;;;;;;;;;5040643;28;20027;-83
2021/12/07 07:43:26;;;;;;;196.77;100.25;;;;;;;;;;5058976;28;20048;-84
2021/12/07 07:45:53;;;;;;;208.63;106.18;;;;;;;;;;5063391;28;20029;-82
2021/12/07 07:48:20;;;;;;;213.07;106.85;;;;;;;;;;5047636;28;20021;-82
2021/12/07 07:50:47;;;;;;;221.80;108.70;;;;;;;;;;5064370;28;20029;-81
2021/12/07 07:53:13;;;;;;;222.45;107.45;;;;;;;;;;5040278;28;20464;-81
2021/12/07 07:55:42;;;;;;;216.55;106.22;;;;;;;;;;5059045;28;20028;-81
2021/12/07 07:58:09;;;;;;;228.55;113.50;;;;;;;;;;5042298;28;20029;-83
2021/12/07 08:00:36;;;;;;;246.88;118.63;;;;;;;;;;5045661;28;20377;-83
2021/12/07 08:03:03;;;;;;;251.50;123.45;;;;;;;;;;5060185;28;20028;-81
2021/12/07 08:05:30;;;;;;;252.40;121.85;;;;;;;;;;5058279;28;20036;-82
2021/12/07 08:07:57;;;;;;;247.38;122.53;;;;;;;;;;5060243;28;20166;-81
2021/12/07 08:10:28;;;;;;;243.30;121.80;;;;;;;;;;5060362;28;20472;-82
2021/12/07 08:12:55;;;;;;;259.40;126.72;;;;;;;;;;5045155;28;20036;-80
2021/12/07 08:15:22;;;;;;;256.50;122.07;;;;;;;;;;5060799;28;20025;-81
2021/12/07 08:17:48;;;;;;;252.35;120.63;;;;;;;;;;5059076;28;20033;-80
2021/12/07 08:20:15;;;;;;;249.63;120.25;;;;;;;;;;5048475;28;20028;-83
2021/12/07 08:22:41;;;;;;;251.52;121.68;;;;;;;;;;5065859;28;20030;-80
2021/12/07 08:25:08;;;;;;;263.55;123.50;;;;;;;;;;5072070;28;20025;-82
2021/12/07 08:27:34;;;;;;;272.40;126.63;;;;;;;;;;5064652;28;20052;-84
2021/12/07 08:30:01;;;;;;;257.33;127.07;;;;;;;;;;5063861;28;20032;-81
2021/12/07 08:32:27;;;;;;;281.98;129.82;;;;;;;;;;5045106;28;20059;-82
2021/12/07 08:34:54;;;;;;;260.00;129.73;;;;;;;;;;5063572;28;20199;-81
2021/12/07 08:37:20;;;;;;;264.33;126.25;;;;;;;;;;5066660;28;20020;-81
2021/12/07 08:39:47;;;;;;;242.52;122.95;;;;;;;;;;5068346;28;20043;-82
2021/12/07 08:42:13;;;;;;;265.45;126.63;;;;;;;;;;5048552;28;20032;-80
2021/12/07 08:44:39;;;;;;;234.50;115.55;;;;;;;;;;5042518;28;20396;-81
2021/12/07 08:47:06;;;;;;;247.13;122.20;;;;;;;;;;5064873;28;20025;-82
2021/12/07 08:49:34;;;;;;;242.23;119.10;;;;;;;;;;5058162;28;20037;-80
2021/12/07 08:52:01;;;;;;;245.35;121.25;;;;;;;;;;5062948;28;20032;-81
2021/12/07 08:59:48;;;;;;;336.23;158.85;;;;;;;;;;5061121;28;20039;-82
2021/12/07 09:02:19;;;;;;;329.10;152.85;;;;;;;;;;5064636;28;20020;-83
2021/12/07 09:04:45;;;;;;;352.40;163.15;;;;;;;;;;5058450;28;20028;-81
2021/12/07 09:07:12;;;;;;;353.73;171.20;;;;;;;;;;5064765;28;20033;-80
2021/12/07 09:09:42;;;;;;;335.13;161.43;;;;;;;;;;5068887;28;20067;-78
2021/12/07 09:12:09;;;;;;;328.52;159.60;;;;;;;;;;5064798;28;20028;-81
2021/12/07 09:14:35;;;;;;;325.77;157.77;;;;;;;;;;5065258;28;20025;-82
2021/12/07 09:17:04;;;;;;;338.75;157.15;;;;;;;;;;5062932;28;20039;-78
2021/12/07 09:19:30;;;;;;;329.17;158.05;;;;;;;;;;5045558;28;20495;-81
2021/12/07 09:21:57;;;;;;;345.52;162.52;;;;;;;;;;5065669;28;20471;-81
2021/12/07 09:24:24;;;;;;;334.02;160.20;;;;;;;;;;5061038;28;20122;-82
2021/12/07 09:26:51;;;;;;;339.10;164.77;;;;;;;;;;5048161;28;20078;-82
2021/12/07 09:29:17;;;;;;;328.27;161.48;;;;;;;;;;5063064;28;20031;-82
2021/12/07 09:31:44;;;;;;;342.75;165.60;;;;;;;;;;5066446;28;20027;-82
2021/12/07 09:34:11;;;;;;;361.55;170.13;;;;;;;;;;5061043;28;20021;-82
2021/12/07 09:36:39;;;;;;;354.88;179.77;;;;;;;;;;5066632;28;20048;-81
2021/12/07 09:39:08;;;;;;;350.88;168.63;;;;;;;;;;5062731;28;20025;-83
2021/12/07 09:41:35;;;;;;;357.50;168.63;;;;;;;;;;5069480;28;20035;-80
2021/12/07 09:44:02;;;;;;;340.17;171.23;;;;;;;;;;5068273;28;20554;-82
2021/12/07 09:46:28;;;;;;;379.02;173.55;;;;;;;;;;5061921;28;20036;-81
2021/12/07 09:48:55;;;;;;;364.92;173.13;;;;;;;;;;5058059;28;20070;-81
2021/12/07 09:51:22;;;;;;;371.65;185.27;;;;;;;;;;5045730;28;20024;-81
2021/12/07 09:53:50;;;;;;;362.42;184.93;;;;;;;;;;5048635;28;20076;-81
2021/12/07 09:56:20;;;;;;;363.20;189.25;;;;;;;;;;5062589;28;20028;-81
2021/12/07 09:58:48;;;;;;;366.60;193.73;;;;;;;;;;5050668;28;20036;-82
2021/12/07 10:01:15;;;;;;;361.60;187.48;;;;;;;;;;5064317;28;20031;-82
2021/12/07 10:03:41;;;;;;;368.25;202.02;;;;;;;;;;5069104;28;20043;-84
2021/12/07 10:06:08;;;;;;;361.83;194.07;;;;;;;;;;5073472;28;20037;-81
2021/12/07 10:08:36;;;;;;;343.63;187.73;;;;;;;;;;5071488;28;20055;-80
2021/12/07 10:11:07;;;;;;;360.70;193.55;;;;;;;;;;5047757;28;20114;-79
2021/12/07 10:13:33;;;;;;;339.52;190.23;;;;;;;;;;5067874;28;20430;-84
2021/12/07 10:16:01;;;;;;;352.63;194.02;;;;;;;;;;5064433;28;20110;-83
2021/12/07 10:18:31;;;;;;;376.20;204.07;;;;;;;;;;5064596;28;20102;-83
2021/12/07 10:21:03;;;;;;;347.52;200.98;;;;;;;;;;5063732;28;20379;-83
2021/12/07 10:23:44;;;;;;;353.70;204.60;;;;;;;;;;5067699;28;20040;-81
2021/12/07 10:26:11;;;;;;;341.50;189.90;;;;;;;;;;5046434;28;20032;-82
2021/12/07 10:28:50;;;;;;;351.90;188.77;;;;;;;;;;5045708;28;20080;-82
2021/12/07 10:31:24;;;;;;;346.95;188.55;;;;;;;;;;5069071;28;20033;-82
2021/12/07 10:33:53;;;;;;;345.48;188.70;;;;;;;;;;5063535;28;20039;-79
2021/12/07 10:36:27;;;;;;;347.25;188.88;;;;;;;;;;5069743;28;20040;-81
2021/12/07 10:38:59;;;;;;;346.70;182.77;;;;;;;;;;5068306;28;20100;-81
2021/12/07 10:41:26;;;;;;;344.05;184.80;;;;;;;;;;5055631;28;20032;-80
2021/12/07 10:43:56;;;;;;;345.15;190.05;;;;;;;;;;5064495;28;20029;-81
2021/12/07 10:46:26;;;;;;;341.35;190.15;;;;;;;;;;5070462;28;20024;-81
2021/12/07 10:49:07;;;;;;;361.80;196.15;;;;;;;;;;5062740;28;20043;-82
2021/12/07 10:51:34;;;;;;;342.70;188.00;;;;;;;;;;5070433;28;20025;-81
2021/12/07 10:54:00;;;;;;;343.08;183.45;;;;;;;;;;5066604;28;20082;-80
2021/12/07 10:56:34;;;;;;;344.55;190.80;;;;;;;;;;5040395;28;20031;-82
2021/12/07 10:59:02;;;;;;;347.38;194.00;;;;;;;;;;5063050;28;20025;-85
2021/12/07 11:01:39;;;;;;;358.08;198.27;;;;;;;;;;5070971;28;20029;-81
2021/12/07 11:04:24;;;;;;;364.48;197.63;;;;;;;;;;5050494;28;20025;-82
2021/12/07 11:07:08;;;;;;;382.02;209.70;;;;;;;;;;5062792;28;20503;-85
2021/12/07 11:10:16;;;;;;;356.90;191.95;;;;;;;;;;5061838;28;20028;-80
2021/12/07 11:12:53;;;;;;;384.23;204.98;;;;;;;;;;5068517;28;20070;-82
2021/12/07 11:15:24;;;;;;;361.00;202.85;;;;;;;;;;5044804;28;20423;-81
2021/12/07 11:17:52;;;;;;;376.83;203.25;;;;;;;;;;5064828;28;20131;-83
2021/12/07 11:20:18;;;;;;;390.40;211.38;;;;;;;;;;5064115;28;20029;-81
2021/12/07 11:22:48;;;;;;;378.02;212.70;;;;;;;;;;5043737;28;20025;-82
2021/12/07 11:25:31;;;;;;;382.60;224.20;;;;;;;;;;5066877;28;20380;-82
2021/12/07 11:30:44;;;;;;;370.98;208.10;;;;;;;;;;5050814;28;20159;-81
2021/12/07 11:33:16;;;;;;;358.83;203.68;;;;;;;;;;5065142;28;20032;-81
2021/12/07 11:35:43;;;;;;;368.13;201.20;;;;;;;;;;5041805;28;20128;-80
2021/12/07 11:38:09;;;;;;;367.17;207.95;;;;;;;;;;5044631;28;20028;-82
2021/12/07 11:40:37;;;;;;;384.73;211.43;;;;;;;;;;5044465;28;20029;-83
2021/12/07 11:43:15;;;;;;;380.55;216.88;;;;;;;;;;5043029;28;20427;-82
2021/12/07 11:45:43;;;;;;;400.23;222.43;;;;;;;;;;5042128;28;20032;-82
2021/12/07 11:48:09;;;;;;;373.90;221.25;;;;;;;;;;5043310;28;20445;-83
2021/12/07 11:50:41;;;;;;;377.40;223.75;;;;;;;;;;5044370;28;20120;-84
2021/12/07 11:53:07;;;;;;;393.75;224.65;;;;;;;;;;5045976;28;20453;-83
2021/12/07 11:55:36;;;;;;;404.58;240.35;;;;;;;;;;5056550;28;20564;-80
2021/12/07 11:58:04;;;;;;;415.17;245.65;;;;;;;;;;5046885;28;20021;-82
2021/12/07 12:00:34;;;;;;;417.55;253.75;;;;;;;;;;5044345;28;20028;-81
2021/12/07 12:03:08;;;;;;;445.13;272.90;;;;;;;;;;5042759;28;20503;-81
2021/12/07 12:05:37;;;;;;;455.08;281.70;;;;;;;;;;5044657;28;20039;-83
2021/12/07 12:11:18;;;;;;;455.60;293.08;;;;;;;;;;5040083;28;20037;-82
2021/12/07 12:13:54;;;;;;;461.60;297.02;;;;;;;;;;5048479;28;20037;-81
2021/12/07 12:16:25;;;;;;;459.20;293.67;;;;;;;;;;5047263;28;20025;-80
2021/12/07 12:18:58;;;;;;;452.70;290.52;;;;;;;;;;5040469;28;20025;-81
2021/12/07 12:21:43;;;;;;;455.60;278.88;;;;;;;;;;5043679;28;20099;-80
2021/12/07 12:24:14;;;;;;;403.55;255.13;;;;;;;;;;5041865;28;20025;-80
2021/12/07 12:26:44;;;;;;;427.17;259.73;;;;;;;;;;5047622;28;20036;-82
2021/12/07 12:29:19;;;;;;;417.90;265.23;;;;;;;;;;5049047;28;20036;-81
2021/12/07 12:31:51;;;;;;;421.75;262.92;;;;;;;;;;5046240;28;20029;-80
2021/12/07 12:34:27;;;;;;;406.20;261.73;;;;;;;;;;5048904;28;20028;-84
2021/12/07 12:36:57;;;;;;;401.65;255.48;;;;;;;;;;5073740;28;20503;-81
2021/12/07 12:39:50;;;;;;;407.90;259.25;;;;;;;;;;5054151;28;20025;-81
2021/12/07 12:42:28;;;;;;;385.63;251.63;;;;;;;;;;5061987;28;20129;-84
2021/12/07 12:45:00;;;;;;;377.85;241.68;;;;;;;;;;5068070;28;20021;-81
2021/12/07 12:47:28;;;;;;;387.70;248.02;;;;;;;;;;5049178;28;20031;-80
2021/12/07 12:49:56;;;;;;;388.80;247.30;;;;;;;;;;5048031;28;20173;-82
2021/12/07 12:52:58;;;;;;;387.48;243.25;;;;;;;;;;5043775;28;20025;-79
2021/12/07 12:55:32;;;;;;;402.40;250.13;;;;;;;;;;4987308;28;20046;-81
2021/12/07 12:57:58;;;;;;;391.27;247.13;;;;;;;;;;5057444;28;20060;-81
2021/12/07 13:00:25;;;;;;;399.38;249.98;;;;;;;;;;5067686;28;20016;-81
2021/12/07 13:02:54;;;;;;;384.10;245.60;;;;;;;;;;5065282;28;20045;-79
2021/12/07 13:05:35;;;;;;;384.52;238.60;;;;;;;;;;5063098;28;20039;-82
2021/12/07 13:08:22;;;;;;;340.58;205.85;;;;;;;;;;5058203;28;20029;-80
2021/12/07 13:11:03;;;;;;;320.98;189.90;;;;;;;;;;5063538;28;20044;-82
2021/12/07 13:13:34;;;;;;;293.63;168.60;;;;;;;;;;5046917;28;20111;-82
2021/12/07 13:16:21;;;;;;;255.73;146.05;;;;;;;;;;5068616;28;20033;-81
2021/12/07 13:18:47;;;;;;;241.35;142.32;;;;;;;;;;5071343;28;20027;-80
2021/12/07 13:21:30;;;;;;;293.95;176.90;;;;;;;;;;5060090;28;20032;-82
2021/12/07 13:24:01;;;;;;;349.02;215.80;;;;;;;;;;5041570;28;20020;-80
2021/12/07 13:26:28;;;;;;;338.02;208.63;;;;;;;;;;5061908;28;20267;-80
2021/12/07 13:29:05;;;;;;;374.38;228.77;;;;;;;;;;5061446;28;20056;-84
2021/12/07 13:31:38;;;;;;;370.60;232.57;;;;;;;;;;5041519;28;20109;-81
2021/12/07 13:34:04;;;;;;;382.23;234.68;;;;;;;;;;5064512;28;20025;-82
2021/12/07 13:36:34;;;;;;;380.40;231.93;;;;;;;;;;5071843;28;20052;-80
2021/12/07 13:39:16;;;;;;;388.73;238.55;;;;;;;;;;5072430;28;20383;-77
2021/12/07 13:41:49;;;;;;;386.63;242.88;;;;;;;;;;5042611;28;20028;-79
2021/12/07 13:44:17;;;;;;;381.30;242.10;;;;;;;;;;5042327;28;20083;-84
2021/12/07 13:46:43;;;;;;;382.42;235.25;;;;;;;;;;5052423;28;20061;-81
2021/12/07 13:49:11;;;;;;;401.35;251.95;;;;;;;;;;5068631;28;20032;-81
2021/12/07 13:51:38;;;;;;;401.55;250.50;;;;;;;;;;5061764;28;20032;-81
2021/12/07 13:54:06;;;;;;;398.85;247.82;;;;;;;;;;5053260;28;20025;-81
2021/12/07 13:56:33;;;;;;;411.38;252.55;;;;;;;;;;5063275;28;20037;-83
2021/12/07 13:59:07;;;;;;;390.27;243.65;;;;;;;;;;5066825;28;20069;-81
2021/12/07 14:01:34;;;;;;;376.77;232.90;;;;;;;;;;5068554;28;20029;-81
2021/12/07 14:04:02;;;;;;;364.42;226.45;;;;;;;;;;5070655;28;20422;-81
2021/12/07 14:06:28;;;;;;;368.73;227.77;;;;;;;;;;5065951;28;20035;-80
2021/12/07 14:09:02;;;;;;;367.33;221.25;;;;;;;;;;5069801;28;20028;-81
2021/12/07 14:11:28;;;;;;;368.05;227.98;;;;;;;;;;5067713;28;20607;-80
2021/12/07 14:13:55;;;;;;;337.25;209.55;;;;;;;;;;5063413;28;20028;-80
2021/12/07 14:16:23;;;;;;;338.75;212.18;;;;;;;;;;5063135;28;20037;-81
2021/12/07 14:18:50;;;;;;;355.48;215.88;;;;;;;;;;5065687;28;20021;-79
2021/12/07 14:21:17;;;;;;;326.33;208.27;;;;;;;;;;5066438;28;20376;-81
2021/12/07 14:23:44;;;;;;;344.63;210.95;;;;;;;;;;5064136;28;20021;-80
2021/12/07 14:26:15;;;;;;;304.98;185.05;;;;;;;;;;5061799;28;20028;-83
2021/12/07 14:28:41;;;;;;;314.67;187.10;;;;;;;;;;5070445;28;20039;-82
2021/12/07 14:31:17;;;;;;;318.92;196.80;;;;;;;;;;5066544;28;20033;-81
2021/12/07 14:33:52;;;;;;;295.75;180.82;;;;;;;;;;5047389;28;20127;-79
2021/12/07 14:36:54;;;;;;;288.73;171.77;;;;;;;;;;5069035;28;20123;-82
2021/12/07 14:39:22;;;;;;;272.35;161.05;;;;;;;;;;4968657;28;20125;-81
2021/12/07 14:41:59;;;;;;;247.98;142.60;;;;;;;;;;5052668;28;20557;-81
2021/12/07 14:44:28;;;;;;;252.85;144.00;;;;;;;;;;5067078;28;20127;-80
2021/12/07 14:46:56;;;;;;;238.05;134.65;;;;;;;;;;5074744;28;20033;-81
2021/12/07 14:49:23;;;;;;;256.05;140.00;;;;;;;;;;5066743;28;20025;-80
2021/12/07 14:51:50;;;;;;;249.88;140.80;;;;;;;;;;5068745;28;20460;-80
2021/12/07 14:54:17;;;;;;;223.00;124.60;;;;;;;;;;5073089;28;20376;-81
2021/12/07 14:56:44;;;;;;;206.60;112.63;;;;;;;;;;5072964;28;20434;-81
2021/12/07 14:59:13;;;;;;;189.05;100.30;;;;;;;;;;5075180;28;20031;-81
2021/12/07 15:01:40;;;;;;;213.07;121.97;;;;;;;;;;5070569;28;20025;-81
2021/12/07 15:04:09;;;;;;;222.20;122.13;;;;;;;;;;5067969;28;20052;-81
2021/12/07 15:06:36;;;;;;;213.40;119.10;;;;;;;;;;5056983;28;20032;-80
2021/12/07 15:09:06;;;;;;;210.27;118.63;;;;;;;;;;5067100;28;20033;-82
2021/12/07 15:11:37;;;;;;;206.70;118.03;;;;;;;;;;5073775;28;20036;-82
2021/12/07 15:14:05;;;;;;;222.00;121.43;;;;;;;;;;5038905;28;20029;-81
2021/12/07 15:16:31;;;;;;;223.60;126.40;;;;;;;;;;5068160;28;20028;-81
2021/12/07 15:18:58;;;;;;;223.95;127.32;;;;;;;;;;5072647;28;20020;-80
2021/12/07 15:21:27;;;;;;;210.07;120.40;;;;;;;;;;5073115;28;20032;-81
2021/12/07 15:23:55;;;;;;;216.02;122.07;;;;;;;;;;5066936;28;20029;-82
2021/12/07 15:26:23;;;;;;;216.48;121.90;;;;;;;;;;5070233;28;20451;-82
2021/12/07 15:29:08;;;;;;;216.68;121.40;;;;;;;;;;5075278;28;20026;-84
2021/12/07 15:31:39;;;;;;;221.93;120.88;;;;;;;;;;5057288;28;20383;-81
2021/12/07 15:34:06;;;;;;;220.23;123.43;;;;;;;;;;5062383;28;20048;-80
2021/12/07 15:36:36;;;;;;;193.57;107.43;;;;;;;;;;5062494;28;20041;-81
2021/12/07 15:39:21;;;;;;;174.38;97.43;;;;;;;;;;5065560;28;20040;-80
2021/12/07 15:41:51;;;;;;;157.85;85.70;;;;;;;;;;5059678;28;20021;-81
2021/12/07 15:44:19;;;;;;;119.55;62.97;;;;;;;;;;5044157;28;20036;-80
2021/12/07 15:46:57;;;;;;;117.85;63.47;;;;;;;;;;5068330;28;20028;-81
2021/12/07 15:49:24;;;;;;;112.68;58.03;;;;;;;;;;5074669;28;20031;-81
2021/12/07 15:51:52;;;;;;;91.28;49.63;;;;;;;;;;5074814;28;20086;-81
2021/12/07 15:54:18;;;;;;;83.28;47.15;;;;;;;;;;5061679;28;20544;-81
2021/12/07 15:56:47;;;;;;;98.63;49.00;;;;;;;;;;5050190;28;20036;-82
2021/12/07 15:59:17;;;;;;;104.90;53.78;;;;;;;;;;5073415;28;20033;-81
2021/12/07 16:01:44;;;;;;;91.78;49.92;;;;;;;;;;5074451;28;20029;-81